createdAt,value
2023-03-26T00:01:15.573Z,7.27
2023-03-26T00:03:45.146Z,7.26
2023-03-26T00:06:14.127Z,7.22
2023-03-26T00:08:42.796Z,7.22
2023-03-26T00:11:11.321Z,7.20
2023-03-26T00:13:38.860Z,7.21
2023-03-26T00:16:05.706Z,7.21
2023-03-26T00:18:35.006Z,7.19
2023-03-26T00:21:03.637Z,7.18
2023-03-26T00:23:31.690Z,7.18
2023-03-26T00:25:58.278Z,7.16
2023-03-26T00:28:26.325Z,7.19
2023-03-26T00:31:01.526Z,7.22
2023-03-26T00:33:28.709Z,7.25
2023-03-26T00:35:58.895Z,7.18
2023-03-26T00:38:26.545Z,7.14
2023-03-26T00:40:54.499Z,7.12
2023-03-26T00:43:22.247Z,7.16
2023-03-26T00:45:51.782Z,7.18
2023-03-26T00:48:19.124Z,7.20
2023-03-26T00:50:47.238Z,7.19
2023-03-26T00:53:16.093Z,7.16
2023-03-26T00:55:45.125Z,7.13
2023-03-26T00:58:13.431Z,7.09
2023-03-26T01:00:48.464Z,7.05
2023-03-26T01:03:27.204Z,7.03
2023-03-26T01:06:02.772Z,7.01
2023-03-26T01:08:39.359Z,6.99
2023-03-26T01:11:14.242Z,6.98
2023-03-26T01:13:54.109Z,6.97
2023-03-26T01:16:31.443Z,6.98
2023-03-26T01:18:58.869Z,7.01
2023-03-26T01:21:30.248Z,7.02
2023-03-26T01:24:07.906Z,7.03
2023-03-26T01:26:56.303Z,7.07
2023-03-26T01:29:29.569Z,7.11
2023-03-26T01:32:19.622Z,7.13
2023-03-26T01:35:08.231Z,7.17
2023-03-26T01:37:53.613Z,7.20
2023-03-26T01:40:25.518Z,7.22
2023-03-26T01:43:03.921Z,7.23
2023-03-26T01:45:34.736Z,7.27
2023-03-26T01:48:01.850Z,7.28
2023-03-26T01:50:28.495Z,7.31
2023-03-26T01:52:55.292Z,7.34
2023-03-26T01:55:26.341Z,7.39
2023-03-26T01:58:15.972Z,7.41
2023-03-26T02:00:49.213Z,7.40
2023-03-26T02:03:22.461Z,7.42
2023-03-26T02:06:11.232Z,7.44
2023-03-26T02:08:42.541Z,7.43
2023-03-26T02:11:16.017Z,7.42
2023-03-26T02:13:45.372Z,7.44
2023-03-26T02:16:17.408Z,7.44
2023-03-26T02:18:46.092Z,7.49
2023-03-26T02:21:21.877Z,7.53
2023-03-26T02:24:02.784Z,7.55
2023-03-26T02:26:31.953Z,7.56
2023-03-26T02:28:59.286Z,7.55
2023-03-26T02:31:28.716Z,7.58
2023-03-26T02:33:55.664Z,7.57
2023-03-26T02:36:27.343Z,7.55
2023-03-26T02:38:55.843Z,7.53
2023-03-26T02:41:22.511Z,7.50
2023-03-26T02:43:49.116Z,7.46
2023-03-26T02:46:16.105Z,7.45
2023-03-26T02:48:43.996Z,7.48
2023-03-26T02:51:10.873Z,7.51
2023-03-26T02:53:37.577Z,7.52
2023-03-26T02:56:04.628Z,7.53
2023-03-26T02:58:31.267Z,7.56
2023-03-26T03:00:57.860Z,7.53
2023-03-26T03:03:26.382Z,7.51
2023-03-26T03:05:54.794Z,7.49
2023-03-26T03:08:24.220Z,7.45
2023-03-26T03:11:02.033Z,7.41
2023-03-26T03:13:29.333Z,7.39
2023-03-26T03:15:56.269Z,7.39
2023-03-26T03:18:23.131Z,7.37
2023-03-26T03:20:50.043Z,7.35
2023-03-26T03:23:16.702Z,7.34
2023-03-26T03:25:43.473Z,7.35
2023-03-26T03:28:10.406Z,7.37
2023-03-26T03:30:37.364Z,7.40
2023-03-26T03:33:06.141Z,7.40
2023-03-26T03:35:33.692Z,7.39
2023-03-26T03:38:00.852Z,7.36
2023-03-26T03:40:27.671Z,7.33
2023-03-26T03:42:54.329Z,7.31
2023-03-26T03:45:21.170Z,7.30
2023-03-26T03:47:47.794Z,7.26
2023-03-26T03:50:14.396Z,7.26
2023-03-26T03:52:40.937Z,7.27
2023-03-26T03:55:07.792Z,7.27
2023-03-26T03:57:34.660Z,7.31
2023-03-26T04:00:01.466Z,7.30
2023-03-26T04:02:34.600Z,7.29
2023-03-26T04:05:03.194Z,7.32
2023-03-26T04:07:33.130Z,7.33
2023-03-26T04:10:02.022Z,7.34
2023-03-26T04:12:29.333Z,7.37
2023-03-26T04:14:56.682Z,7.39
2023-03-26T04:17:23.385Z,7.39
2023-03-26T04:19:52.949Z,7.40
2023-03-26T04:22:19.923Z,7.40
2023-03-26T04:24:48.760Z,7.38
2023-03-26T04:27:20.254Z,7.38
2023-03-26T04:29:50.308Z,7.35
2023-03-26T04:32:34.215Z,7.36
2023-03-26T04:35:04.050Z,7.37
2023-03-26T04:37:42.193Z,7.38
2023-03-26T04:40:22.205Z,7.37
2023-03-26T04:42:48.803Z,7.36
2023-03-26T04:45:17.786Z,7.37
2023-03-26T04:47:46.445Z,7.37
2023-03-26T04:50:13.392Z,7.37
2023-03-26T04:52:40.967Z,7.37
2023-03-26T04:55:21.268Z,7.39
2023-03-26T04:57:51.440Z,7.38
2023-03-26T05:00:21.364Z,7.36
2023-03-26T05:02:50.862Z,7.38
2023-03-26T05:05:18.145Z,7.38
2023-03-26T05:07:45.240Z,7.40
2023-03-26T05:10:14.763Z,7.40
2023-03-26T05:12:42.086Z,7.39
2023-03-26T05:15:11.416Z,7.41
2023-03-26T05:17:41.654Z,7.41
2023-03-26T05:20:18.282Z,7.39
2023-03-26T05:22:45.009Z,7.40
2023-03-26T05:25:11.588Z,7.40
2023-03-26T05:27:38.627Z,7.37
2023-03-26T05:30:07.319Z,7.36
2023-03-26T05:32:34.683Z,7.34
2023-03-26T05:35:01.736Z,7.32
2023-03-26T05:37:32.163Z,7.33
2023-03-26T05:39:59.876Z,7.35
2023-03-26T05:42:27.046Z,7.43
2023-03-26T05:44:53.590Z,7.48
2023-03-26T05:47:20.458Z,7.52
2023-03-26T05:49:47.211Z,7.53
2023-03-26T05:52:16.189Z,7.58
2023-03-26T05:54:42.905Z,7.60
2023-03-26T05:57:09.570Z,7.80
2023-03-26T05:59:36.678Z,7.82
2023-03-26T06:02:03.600Z,7.87
2023-03-26T06:04:31.916Z,7.83
2023-03-26T06:06:58.736Z,7.83
2023-03-26T06:09:25.424Z,7.84
2023-03-26T06:11:52.013Z,7.85
2023-03-26T06:14:18.592Z,7.92
2023-03-26T06:16:45.128Z,8.03
2023-03-26T06:19:11.852Z,8.13
2023-03-26T06:21:38.669Z,8.13
2023-03-26T06:24:05.572Z,8.13
2023-03-26T06:26:32.507Z,8.16
2023-03-26T06:28:59.048Z,8.13
2023-03-26T06:31:25.698Z,8.19
2023-03-26T06:33:53.247Z,8.27
2023-03-26T06:36:19.924Z,8.40
2023-03-26T06:38:46.569Z,8.41
2023-03-26T06:41:14.368Z,8.49
2023-03-26T06:43:41.063Z,8.55
2023-03-26T06:46:07.778Z,8.55
2023-03-26T06:48:34.518Z,8.57
2023-03-26T06:51:01.123Z,8.52
2023-03-26T06:53:27.740Z,8.63
2023-03-26T06:55:54.661Z,8.76
2023-03-26T06:58:21.891Z,8.91
2023-03-26T07:00:48.542Z,9.02
2023-03-26T07:03:17.210Z,9.05
2023-03-26T07:05:43.905Z,9.11
2023-03-26T07:08:10.587Z,9.17
2023-03-26T07:10:37.233Z,9.24
2023-03-26T07:13:03.862Z,9.28
2023-03-26T07:15:30.742Z,9.22
2023-03-26T07:17:57.341Z,9.15
2023-03-26T07:20:24.717Z,9.15
2023-03-26T07:22:51.886Z,9.16
2023-03-26T07:25:19.549Z,9.25
2023-03-26T07:28:06.534Z,9.30
2023-03-26T07:30:57.835Z,9.19
2023-03-26T07:33:53.722Z,9.18
2023-03-26T07:36:47.539Z,9.09
2023-03-26T07:39:29.420Z,9.01
2023-03-26T07:42:08.536Z,9.08
2023-03-26T07:44:42.245Z,9.11
2023-03-26T07:47:19.839Z,9.15
2023-03-26T07:49:46.663Z,9.16
2023-03-26T07:52:13.378Z,9.21
2023-03-26T07:54:40.575Z,9.22
2023-03-26T07:57:21.090Z,9.24
2023-03-26T08:00:12.415Z,9.40
2023-03-26T08:03:17.474Z,9.61
2023-03-26T08:05:53.273Z,9.62
2023-03-26T08:08:27.137Z,9.59
2023-03-26T08:11:10.031Z,9.50
2023-03-26T08:13:57.944Z,9.66
2023-03-26T08:16:36.764Z,9.73
2023-03-26T08:19:27.624Z,10.00
2023-03-26T08:22:00.386Z,10.32
2023-03-26T08:24:43.485Z,10.66
2023-03-26T08:27:22.105Z,11.01
2023-03-26T08:30:21.725Z,10.88
2023-03-26T08:33:00.221Z,10.61
2023-03-26T08:35:28.437Z,10.49
2023-03-26T08:37:55.409Z,10.23
2023-03-26T08:41:03.767Z,9.84
2023-03-26T08:43:47.697Z,9.75
2023-03-26T08:46:33.900Z,9.60
2023-03-26T08:49:41.181Z,9.65
2023-03-26T08:52:24.590Z,9.76
2023-03-26T08:54:57.398Z,9.68
2023-03-26T08:57:25.285Z,9.62
2023-03-26T09:00:15.698Z,9.47
2023-03-26T09:02:45.049Z,9.38
2023-03-26T09:06:05.765Z,9.43
2023-03-26T09:08:53.854Z,9.56
2023-03-26T09:11:59.995Z,9.73
2023-03-26T09:14:51.506Z,9.96
2023-03-26T09:17:57.737Z,10.10
2023-03-26T09:20:30.962Z,10.22
2023-03-26T09:22:57.460Z,10.19
2023-03-26T09:26:01.825Z,10.38
2023-03-26T09:28:34.610Z,10.66
2023-03-26T09:31:16.812Z,10.76
2023-03-26T09:34:04.976Z,10.67
2023-03-26T09:36:55.549Z,10.41
2023-03-26T09:39:29.790Z,10.09
2023-03-26T09:42:23.130Z,9.83
2023-03-26T09:45:08.985Z,9.70
2023-03-26T09:48:32.297Z,9.76
2023-03-26T09:51:07.800Z,9.98
2023-03-26T09:53:38.548Z,10.19
2023-03-26T09:56:25.780Z,10.46
2023-03-26T09:59:24.880Z,10.75
2023-03-26T10:01:57.700Z,11.14
2023-03-26T10:04:52.027Z,11.45
2023-03-26T10:07:36.562Z,11.65
2023-03-26T10:10:40.255Z,11.54
2023-03-26T10:13:22.009Z,11.38
2023-03-26T10:16:21.355Z,11.13
2023-03-26T10:19:20.135Z,10.87
2023-03-26T10:22:25.772Z,10.75
2023-03-26T10:25:17.402Z,10.75
2023-03-26T10:28:18.347Z,10.67
2023-03-26T10:30:54.274Z,10.41
2023-03-26T10:33:27.205Z,10.25
2023-03-26T10:36:07.992Z,10.10
2023-03-26T10:38:59.580Z,9.91
2023-03-26T10:41:49.431Z,9.93
2023-03-26T10:44:48.578Z,10.00
2023-03-26T10:47:44.181Z,10.09
2023-03-26T10:50:25.891Z,10.12
2023-03-26T10:52:57.343Z,10.31
2023-03-26T10:55:40.259Z,10.44
2023-03-26T10:58:24.003Z,10.51
2023-03-26T11:01:19.802Z,10.55
2023-03-26T11:03:46.404Z,10.59
2023-03-26T11:06:34.516Z,10.56
2023-03-26T11:09:24.589Z,10.69
2023-03-26T11:11:57.030Z,10.89
2023-03-26T11:15:01.708Z,10.84
2023-03-26T11:17:41.680Z,10.66
2023-03-26T11:20:28.953Z,10.65
2023-03-26T11:23:26.071Z,10.49
2023-03-26T11:26:11.150Z,10.22
2023-03-26T11:29:03.128Z,10.06
2023-03-26T11:31:46.177Z,10.20
2023-03-26T11:34:16.684Z,10.46
2023-03-26T11:36:53.622Z,10.55
2023-03-26T11:39:33.142Z,10.56
2023-03-26T11:42:11.215Z,10.71
2023-03-26T11:44:48.070Z,10.83
2023-03-26T11:47:19.429Z,10.84
2023-03-26T11:49:50.089Z,10.83
2023-03-26T11:52:17.027Z,10.75
2023-03-26T11:54:48.180Z,10.91
2023-03-26T11:57:22.729Z,11.25
2023-03-26T12:00:08.007Z,11.73
2023-03-26T12:02:41.463Z,12.09
2023-03-26T12:05:14.724Z,12.39
2023-03-26T12:07:45.851Z,12.65
2023-03-26T12:10:38.788Z,12.59
2023-03-26T12:13:28.199Z,12.39
2023-03-26T12:15:59.851Z,12.05
2023-03-26T12:18:28.297Z,11.90
2023-03-26T12:21:11.706Z,11.62
2023-03-26T12:24:29.424Z,11.04
2023-03-26T12:27:21.087Z,10.34
2023-03-26T12:30:21.533Z,9.77
2023-03-26T12:32:53.036Z,9.40
2023-03-26T12:35:27.335Z,9.00
2023-03-26T12:38:13.959Z,8.80
2023-03-26T12:40:42.625Z,8.68
2023-03-26T12:44:50.482Z,8.75
2023-03-26T12:47:58.452Z,9.08
2023-03-26T12:49:16.413Z,9.50
2023-03-26T12:51:52.939Z,9.91
2023-03-26T12:54:28.896Z,10.25
2023-03-26T12:57:16.867Z,10.42
2023-03-26T13:00:10.796Z,10.68
2023-03-26T13:03:06.835Z,10.87
2023-03-26T13:05:34.144Z,11.01
2023-03-26T13:08:35.094Z,10.91
2023-03-26T13:11:20.850Z,10.68
2023-03-26T13:14:18.565Z,10.51
2023-03-26T13:16:53.154Z,10.40
2023-03-26T13:19:44.978Z,10.25
2023-03-26T13:22:33.069Z,10.11
2023-03-26T13:25:07.528Z,10.06
2023-03-26T13:27:50.219Z,10.10
2023-03-26T13:30:41.561Z,10.18
2023-03-26T13:33:26.451Z,10.23
2023-03-26T13:36:24.198Z,10.29
2023-03-26T13:39:22.511Z,10.42
2023-03-26T13:42:19.900Z,10.59
2023-03-26T13:45:04.312Z,10.81
2023-03-26T13:47:36.897Z,11.08
2023-03-26T13:50:14.844Z,11.36
2023-03-26T13:53:13.230Z,11.42
2023-03-26T13:55:43.701Z,11.37
2023-03-26T13:58:25.735Z,11.23
2023-03-26T14:01:10.090Z,11.17
2023-03-26T14:06:26.749Z,10.98
2023-03-26T14:09:07.550Z,10.79
2023-03-26T14:11:49.366Z,10.56
2023-03-26T14:14:34.833Z,10.43
2023-03-26T14:17:53.600Z,10.35
2023-03-26T14:20:41.979Z,10.39
2023-03-26T14:23:20.547Z,10.53
2023-03-26T14:26:05.716Z,10.69
2023-03-26T14:29:05.838Z,10.86
2023-03-26T14:31:35.485Z,10.96
2023-03-26T14:34:24.340Z,10.91
2023-03-26T14:37:30.068Z,10.96
2023-03-26T14:40:43.261Z,10.98
2023-03-26T14:43:09.793Z,11.01
2023-03-26T14:45:45.194Z,11.05
2023-03-26T14:48:48.268Z,11.05
2023-03-26T14:51:34.007Z,11.03
2023-03-26T14:57:16.581Z,10.93
2023-03-26T15:00:16.659Z,10.89
2023-03-26T15:03:39.964Z,10.84
2023-03-26T15:06:51.075Z,10.83
2023-03-26T15:09:41.808Z,10.75
2023-03-26T15:12:29.863Z,10.63
2023-03-26T15:15:34.477Z,10.49
2023-03-26T15:18:19.282Z,10.37
2023-03-26T15:21:04.169Z,10.36
2023-03-26T15:23:49.010Z,10.40
2023-03-26T15:26:37.992Z,10.40
2023-03-26T15:29:27.116Z,10.43
2023-03-26T15:31:57.617Z,10.52
2023-03-26T15:34:58.604Z,10.50
2023-03-26T15:37:50.372Z,10.49
2023-03-26T15:40:45.591Z,10.42
2023-03-26T15:43:13.110Z,10.41
2023-03-26T15:45:44.080Z,10.39
2023-03-26T15:48:11.540Z,10.23
2023-03-26T15:51:03.087Z,10.12
2023-03-26T15:54:04.131Z,10.01
2023-03-26T15:56:53.165Z,9.94
2023-03-26T15:59:57.513Z,9.90
2023-03-26T16:02:40.282Z,9.82
2023-03-26T16:05:22.166Z,9.76
2023-03-26T16:08:15.010Z,9.72
2023-03-26T16:10:52.963Z,9.70
2023-03-26T16:13:19.645Z,9.69
2023-03-26T16:16:02.102Z,9.62
2023-03-26T16:18:31.129Z,9.58
2023-03-26T16:21:30.439Z,9.58
2023-03-26T16:24:08.229Z,9.54
2023-03-26T16:26:43.938Z,9.47
2023-03-26T16:29:22.354Z,9.42
2023-03-26T16:32:05.868Z,9.33
2023-03-26T16:34:45.114Z,9.26
2023-03-26T16:37:36.535Z,9.18
2023-03-26T16:40:20.856Z,9.10
2023-03-26T16:42:58.266Z,9.01
2023-03-26T16:45:33.214Z,8.92
2023-03-26T16:48:36.594Z,8.83
2023-03-26T16:51:16.066Z,8.73
2023-03-26T16:53:53.512Z,8.65
2023-03-26T16:56:47.579Z,8.54
2023-03-26T16:59:29.489Z,8.45
2023-03-26T17:02:05.189Z,8.36
2023-03-26T17:04:34.441Z,8.27
2023-03-26T17:07:37.725Z,8.17
2023-03-26T17:10:11.995Z,8.02
2023-03-26T17:12:51.090Z,7.92
2023-03-26T17:15:43.440Z,7.79
2023-03-26T17:18:27.680Z,7.66
2023-03-26T17:21:03.978Z,7.51
2023-03-26T17:23:54.147Z,7.40
2023-03-26T17:26:24.113Z,7.31
2023-03-26T17:29:25.836Z,7.20
2023-03-26T17:31:58.551Z,7.05
2023-03-26T17:34:47.118Z,6.93
2023-03-26T17:37:16.925Z,6.81
2023-03-26T17:39:44.029Z,6.69
2023-03-26T17:42:13.839Z,6.57
2023-03-26T17:45:04.289Z,6.42
2023-03-26T17:47:38.510Z,6.27
2023-03-26T17:50:27.172Z,6.14
2023-03-26T17:53:20.455Z,6.03
2023-03-26T17:55:51.349Z,5.95
2023-03-26T17:58:33.887Z,5.86
2023-03-26T18:01:10.071Z,5.77
2023-03-26T18:03:49.375Z,5.68
2023-03-26T18:06:40.701Z,5.59
2023-03-26T18:09:37.268Z,5.48
2023-03-26T18:12:23.812Z,5.39
2023-03-26T18:15:09.144Z,5.31
2023-03-26T18:17:46.048Z,5.24
2023-03-26T18:20:23.319Z,5.17
2023-03-26T18:22:51.738Z,5.17
2023-03-26T18:25:25.357Z,5.22
2023-03-26T18:27:52.997Z,5.21
2023-03-26T18:30:22.698Z,5.25
2023-03-26T18:33:04.470Z,5.26
2023-03-26T18:35:51.850Z,5.27
2023-03-26T18:38:35.083Z,5.24
2023-03-26T18:41:06.562Z,5.21
2023-03-26T18:43:35.633Z,5.20
2023-03-26T18:46:13.790Z,5.22
2023-03-26T18:48:40.897Z,5.23
2023-03-26T18:51:08.162Z,5.22
2023-03-26T18:53:41.044Z,5.22
2023-03-26T18:56:28.795Z,5.20
2023-03-26T18:58:58.317Z,5.18
2023-03-26T19:01:30.772Z,5.16
2023-03-26T19:03:59.981Z,5.15
2023-03-26T19:06:26.796Z,5.10
2023-03-26T19:08:54.679Z,5.07
2023-03-26T19:11:21.644Z,4.99
2023-03-26T19:14:06.995Z,4.93
2023-03-26T19:16:37.153Z,4.89
2023-03-26T19:19:08.022Z,4.84
2023-03-26T19:21:36.247Z,4.78
2023-03-26T19:24:04.598Z,4.73
2023-03-26T19:26:31.671Z,4.67
2023-03-26T19:28:58.660Z,4.61
2023-03-26T19:31:30.379Z,4.58
2023-03-26T19:34:02.745Z,4.56
2023-03-26T19:36:32.437Z,4.53
2023-03-26T19:38:59.125Z,4.50
2023-03-26T19:41:42.217Z,4.46
2023-03-26T19:44:17.940Z,4.42
2023-03-26T19:46:53.820Z,4.34
2023-03-26T19:49:32.546Z,4.27
2023-03-26T19:52:14.863Z,4.22
2023-03-26T19:54:59.684Z,4.18
2023-03-26T19:57:28.134Z,4.15
2023-03-26T19:59:55.500Z,4.11
2023-03-26T20:02:22.766Z,4.07
2023-03-26T20:04:49.703Z,4.02
2023-03-26T20:07:19.622Z,3.96
2023-03-26T20:09:48.732Z,3.91
2023-03-26T20:12:19.861Z,3.86
2023-03-26T20:14:46.493Z,3.88
2023-03-26T20:17:16.131Z,3.88
2023-03-26T20:19:44.612Z,3.89
2023-03-26T20:22:22.151Z,3.91
2023-03-26T20:24:48.822Z,3.93
2023-03-26T20:27:16.130Z,3.94
2023-03-26T20:29:42.688Z,3.97
2023-03-26T20:32:26.456Z,3.97
2023-03-26T20:34:54.198Z,4.01
2023-03-26T20:37:21.070Z,4.10
2023-03-26T20:39:47.682Z,4.16
2023-03-26T20:42:19.160Z,4.23
2023-03-26T20:44:46.160Z,4.28
2023-03-26T20:47:14.254Z,4.30
2023-03-26T20:49:43.125Z,4.24
2023-03-26T20:52:13.551Z,4.16
2023-03-26T20:54:40.235Z,4.06
2023-03-26T20:57:07.281Z,3.96
2023-03-26T20:59:34.630Z,3.86
2023-03-26T21:02:01.393Z,3.75
2023-03-26T21:04:28.089Z,3.67
2023-03-26T21:06:57.863Z,3.63
2023-03-26T21:09:34.510Z,3.58
2023-03-26T21:12:08.356Z,3.50
2023-03-26T21:14:44.245Z,3.42
2023-03-26T21:17:16.156Z,3.33
2023-03-26T21:19:44.358Z,3.28
2023-03-26T21:22:49.024Z,3.18
2023-03-26T21:25:25.715Z,3.01
2023-03-26T21:27:58.228Z,2.95
2023-03-26T21:30:25.754Z,2.91
2023-03-26T21:32:52.440Z,2.88
2023-03-26T21:35:19.669Z,2.82
2023-03-26T21:37:49.698Z,2.76
2023-03-26T21:40:18.007Z,2.69
2023-03-26T21:42:46.840Z,2.64
2023-03-26T21:45:13.710Z,2.67
2023-03-26T21:47:42.027Z,2.78
2023-03-26T21:50:09.942Z,2.88
2023-03-26T21:52:37.259Z,2.98
2023-03-26T21:55:06.532Z,3.15
2023-03-26T21:57:59.250Z,3.25
2023-03-26T22:00:37.188Z,3.28
2023-03-26T22:03:37.515Z,3.35
2023-03-26T22:06:23.037Z,3.37
2023-03-26T22:08:49.752Z,3.43
2023-03-26T22:11:16.311Z,3.50
2023-03-26T22:13:43.629Z,3.62
2023-03-26T22:16:10.715Z,3.71
2023-03-26T22:18:37.365Z,3.75
2023-03-26T22:21:05.887Z,3.76
2023-03-26T22:23:36.093Z,3.73
2023-03-26T22:26:04.291Z,3.72
2023-03-26T22:28:32.308Z,3.68
2023-03-26T22:31:05.956Z,3.66
2023-03-26T22:33:32.534Z,3.60
2023-03-26T22:35:59.354Z,3.58
2023-03-26T22:38:28.480Z,3.56
2023-03-26T22:40:57.151Z,3.51
2023-03-26T22:43:23.994Z,3.49
2023-03-26T22:45:51.513Z,3.44
2023-03-26T22:48:18.305Z,3.34
2023-03-26T22:50:44.888Z,3.30
2023-03-26T22:53:11.700Z,3.27
2023-03-26T22:55:38.290Z,3.22
2023-03-26T22:58:04.820Z,3.20
2023-03-26T23:00:32.425Z,3.16
2023-03-26T23:03:00.589Z,3.13
2023-03-26T23:05:27.835Z,3.08
2023-03-26T23:07:54.359Z,3.03
2023-03-26T23:10:21.744Z,3.01
2023-03-26T23:12:48.642Z,2.99
2023-03-26T23:15:15.169Z,2.96
2023-03-26T23:17:42.309Z,2.92
2023-03-26T23:20:14.906Z,2.87
2023-03-26T23:22:42.962Z,2.80
2023-03-26T23:25:11.289Z,2.78
2023-03-26T23:27:38.241Z,2.73
2023-03-26T23:30:05.517Z,2.68
2023-03-26T23:32:33.025Z,2.62
2023-03-26T23:34:59.588Z,2.57
2023-03-26T23:37:26.252Z,2.53
2023-03-26T23:39:52.870Z,2.53
2023-03-26T23:42:28.698Z,2.56
2023-03-26T23:44:57.263Z,2.56
2023-03-26T23:47:24.305Z,2.53
2023-03-26T23:49:51.329Z,2.50
2023-03-26T23:52:18.228Z,2.46
2023-03-26T23:54:45.564Z,2.38
2023-03-26T23:57:12.247Z,2.30
2023-03-26T23:59:41.550Z,2.23
